createdAt,value
2018-04-28T00:01:34.552Z,1013
2018-04-28T00:06:34.795Z,1013.1
2018-04-28T00:11:34.816Z,1013.1
2018-04-28T00:16:34.721Z,1013.1
2018-04-28T00:21:34.771Z,1013.1
2018-04-28T00:26:34.965Z,1013.1
2018-04-28T00:31:34.926Z,1013.1
2018-04-28T00:36:47.773Z,1013.2
2018-04-28T00:41:47.702Z,1013.2
2018-04-28T00:46:47.732Z,1013.4
2018-04-28T00:51:47.684Z,1013.4
2018-04-28T00:56:47.692Z,1013.5
2018-04-28T01:01:48.197Z,1013.6
2018-04-28T01:06:48.197Z,1013.6
2018-04-28T01:11:51.006Z,1013.8
2018-04-28T01:16:50.838Z,1013.7
2018-04-28T01:22:03.579Z,1013.8
2018-04-28T01:27:03.315Z,1013.8
2018-04-28T01:32:03.507Z,1013.8
2018-04-28T01:37:03.450Z,1013.8
2018-04-28T01:42:03.464Z,1013.9
2018-04-28T01:47:03.448Z,1013.8
2018-04-28T01:52:03.517Z,1013.8
2018-04-28T01:57:03.457Z,1013.9
2018-04-28T02:02:03.543Z,1014
2018-04-28T02:07:17.133Z,1014.1
2018-04-28T02:12:16.884Z,1014.2
2018-04-28T02:17:16.929Z,1014.2
2018-04-28T02:22:16.967Z,1014.2
2018-04-28T02:27:16.965Z,1014.2
2018-04-28T02:32:16.923Z,1014.2
2018-04-28T02:37:16.900Z,1014.2
2018-04-28T02:42:20.476Z,1014.3
2018-04-28T02:47:20.209Z,1014.3
2018-04-28T02:52:33.292Z,1014.3
2018-04-28T02:57:33.166Z,1014.4
2018-04-28T03:02:33.084Z,1014.5
2018-04-28T03:07:33.134Z,1014.5
2018-04-28T03:12:33.108Z,1014.5
2018-04-28T03:17:33.072Z,1014.5
2018-04-28T03:22:33.135Z,1014.5
2018-04-28T03:27:33.379Z,1014.6
2018-04-28T03:32:33.278Z,1014.6
2018-04-28T03:37:45.559Z,1014.8
2018-04-28T03:42:45.445Z,1014.8
2018-04-28T03:47:45.322Z,1014.8
2018-04-28T03:52:45.527Z,1014.9
2018-04-28T03:57:45.435Z,1014.9
2018-04-28T04:02:45.475Z,1015
2018-04-28T04:07:45.495Z,1015.1
2018-04-28T04:12:46.011Z,1015.2
2018-04-28T04:17:45.673Z,1015.2
2018-04-28T04:22:58.732Z,1015.2
2018-04-28T04:27:58.679Z,1015.2
2018-04-28T04:32:58.717Z,1015.3
2018-04-28T04:37:58.605Z,1015.2
2018-04-28T04:42:58.462Z,1015.1
2018-04-28T04:48:03.875Z,1015.2
2018-04-28T04:53:04.051Z,1015.3
2018-04-28T04:58:06.481Z,1015.3
2018-04-28T05:03:06.369Z,1015.4
2018-04-28T05:08:20.311Z,1015.4
2018-04-28T05:13:20.274Z,1015.3
2018-04-28T05:18:20.189Z,1015.4
2018-04-28T05:23:20.243Z,1015.4
2018-04-28T05:28:20.270Z,1015.3
2018-04-28T05:33:20.048Z,1015.3
2018-04-28T05:38:20.227Z,1015.1
2018-04-28T05:43:25.923Z,1015.1
2018-04-28T05:48:26.093Z,1015
2018-04-28T05:53:36.798Z,1015
2018-04-28T05:58:36.737Z,1015
2018-04-28T06:03:36.668Z,1015
2018-04-28T06:08:36.708Z,1014.9
2018-04-28T06:13:36.754Z,1015
2018-04-28T06:18:36.683Z,1014.9
2018-04-28T06:23:37.169Z,1014.9
2018-04-28T06:28:36.853Z,1014.9
2018-04-28T06:33:36.726Z,1014.7
2018-04-28T06:38:48.846Z,1014.6
2018-04-28T06:43:48.534Z,1014.5
2018-04-28T06:48:48.768Z,1014.5
2018-04-28T06:53:48.681Z,1014.4
2018-04-28T06:58:48.550Z,1014.5
2018-04-28T07:03:48.568Z,1014.3
2018-04-28T07:08:48.528Z,1014.5
2018-04-28T07:13:48.572Z,1014.4
2018-04-28T07:18:48.583Z,1014.3
2018-04-28T07:23:59.912Z,1014.3
2018-04-28T07:28:59.621Z,1014.2
2018-04-28T07:33:59.647Z,1014.1
2018-04-28T07:38:59.666Z,1014.2
2018-04-28T07:43:59.901Z,1014.2
2018-04-28T07:48:59.915Z,1014.2
2018-04-28T07:54:01.258Z,1014.2
2018-04-28T07:59:03.926Z,1014.1
2018-04-28T08:04:03.661Z,1014.1
2018-04-28T08:09:14.116Z,1014.1
2018-04-28T08:14:14.986Z,1014.1
2018-04-28T08:19:13.876Z,1013.9
2018-04-28T08:24:13.979Z,1013.9
2018-04-28T08:29:13.854Z,1013.8
2018-04-28T08:34:14.987Z,1013.9
2018-04-28T08:39:13.862Z,1013.7
2018-04-28T08:44:14.272Z,1013.7
2018-04-28T08:49:13.881Z,1013.7
2018-04-28T08:54:25.896Z,1013.7
2018-04-28T08:59:25.614Z,1013.6
2018-04-28T09:04:25.700Z,1013.5
2018-04-28T09:09:36.902Z,1013.4
2018-04-28T09:14:51.079Z,1013.3
2018-04-28T09:19:43.756Z,1013.4
2018-04-28T09:24:43.499Z,1013.3
2018-04-28T09:29:43.467Z,1013.2
2018-04-28T09:34:43.498Z,1013.1
2018-04-28T09:39:43.492Z,1013.1
2018-04-28T09:44:45.214Z,1013.1
2018-04-28T09:49:44.949Z,1012.9
2018-04-28T09:54:46.051Z,1012.7
2018-04-28T09:59:44.956Z,1012.6
2018-04-28T10:04:45.166Z,1012.7
2018-04-28T10:09:45.198Z,1012.5
2018-04-28T10:14:45.164Z,1012.5
2018-04-28T10:19:45.988Z,1012.4
2018-04-28T10:24:45.194Z,1012.2
2018-04-28T10:29:56.206Z,1012
2018-04-28T10:34:55.938Z,1011.9
2018-04-28T10:39:55.916Z,1011.7
2018-04-28T10:44:56.246Z,1011.6
2018-04-28T10:49:57.062Z,1011.4
2018-04-28T10:54:55.948Z,1011.4
2018-04-28T10:59:57.061Z,1011.3
2018-04-28T11:04:58.033Z,1011.3
2018-04-28T11:09:57.754Z,1011.1
2018-04-28T11:15:10.141Z,1011
2018-04-28T11:20:10.148Z,1010.9
2018-04-28T11:25:10.070Z,1010.9
2018-04-28T11:30:10.044Z,1010.8
2018-04-28T11:35:10.078Z,1010.8
2018-04-28T11:40:10.930Z,1010.7
2018-04-28T11:45:10.681Z,1010.6
2018-04-28T11:50:10.942Z,1010.6
2018-04-28T11:55:10.711Z,1010.4
2018-04-28T12:00:10.654Z,1010.5
2018-04-28T12:05:11.401Z,1010.3
2018-04-28T12:10:10.626Z,1010.3
2018-04-28T12:15:12.499Z,1010.2
2018-04-28T12:20:12.067Z,1010.1
2018-04-28T12:25:25.396Z,1010
2018-04-28T12:30:25.122Z,1010
2018-04-28T12:35:25.118Z,1009.9
2018-04-28T12:40:25.531Z,1009.8
2018-04-28T12:45:25.292Z,1009.6
2018-04-28T12:50:25.329Z,1009.8
2018-04-28T12:55:25.139Z,1009.8
2018-04-28T13:00:26.856Z,1009.7
2018-04-28T13:05:26.546Z,1009.6
2018-04-28T13:10:39.603Z,1009.6
2018-04-28T13:15:39.236Z,1009.6
2018-04-28T13:20:39.214Z,1009.3
2018-04-28T13:25:39.320Z,1009.3
2018-04-28T13:30:39.360Z,1009.3
2018-04-28T13:35:39.236Z,1009
2018-04-28T13:40:39.471Z,1009.1
2018-04-28T13:45:44.730Z,1008.9
2018-04-28T13:50:44.409Z,1008.9
2018-04-28T13:55:58.171Z,1008.7
2018-04-28T14:00:57.973Z,1008.8
2018-04-28T14:05:58.038Z,1008.7
2018-04-28T14:10:57.913Z,1008.6
2018-04-28T14:15:57.970Z,1008.6
2018-04-28T14:20:58.071Z,1008.7
2018-04-28T14:25:58.063Z,1008.6
2018-04-28T14:30:58.881Z,1008.5
2018-04-28T14:35:58.650Z,1008.6
2018-04-28T14:41:11.555Z,1008.5
2018-04-28T14:46:11.820Z,1008.5
2018-04-28T14:51:11.393Z,1008.6
2018-04-28T14:56:11.450Z,1008.4
2018-04-28T15:01:11.777Z,1008.5
2018-04-28T15:06:11.664Z,1008.6
2018-04-28T15:11:11.872Z,1008.7
2018-04-28T15:16:14.377Z,1008.6
2018-04-28T15:21:14.219Z,1008.5
2018-04-28T15:26:28.135Z,1008.6
2018-04-28T15:31:27.860Z,1008.5
2018-04-28T15:36:27.888Z,1008.5
2018-04-28T15:41:27.934Z,1008.5
2018-04-28T15:46:28.192Z,1008.4
2018-04-28T15:51:27.869Z,1008.4
2018-04-28T15:56:27.880Z,1008.4
2018-04-28T16:01:28.087Z,1008.4
2018-04-28T16:06:27.898Z,1008.3
2018-04-28T16:11:28.169Z,1008.4
2018-04-28T16:16:28.086Z,1008.3
2018-04-28T16:21:27.899Z,1008.4
2018-04-28T16:26:29.613Z,1008.4
2018-04-28T16:31:29.606Z,1008.3
2018-04-28T16:36:42.288Z,1008.2
2018-04-28T16:41:42.174Z,1008.3
2018-04-28T16:46:42.214Z,1008.2
2018-04-28T16:51:42.147Z,1008.2
2018-04-28T16:56:42.186Z,1008.2
2018-04-28T17:01:42.232Z,1008.2
2018-04-28T17:06:42.029Z,1008.2
2018-04-28T17:11:42.028Z,1008.1
2018-04-28T17:16:42.255Z,1008.2
2018-04-28T17:21:54.981Z,1008.3
2018-04-28T17:26:54.771Z,1008.3
2018-04-28T17:31:55.265Z,1008.3
2018-04-28T17:36:54.951Z,1008.3
2018-04-28T17:41:54.907Z,1008.4
2018-04-28T17:46:56.540Z,1008.5
2018-04-28T17:51:56.460Z,1008.5
2018-04-28T17:56:56.436Z,1008.5
2018-04-28T18:01:56.716Z,1008.6
2018-04-28T18:06:56.314Z,1008.5
2018-04-28T18:11:56.434Z,1008.6
2018-04-28T18:16:56.536Z,1008.7
2018-04-28T18:21:57.238Z,1008.7
2018-04-28T18:26:56.985Z,1008.8
2018-04-28T18:32:12.864Z,1008.9
2018-04-28T18:37:12.754Z,1009
2018-04-28T18:42:12.797Z,1009.1
2018-04-28T18:47:12.831Z,1009.1
2018-04-28T18:52:12.825Z,1009
2018-04-28T18:57:12.784Z,1009.1
2018-04-28T19:02:12.829Z,1009.1
2018-04-28T19:07:15.852Z,1009.2
2018-04-28T19:12:15.851Z,1009.3
2018-04-28T19:17:25.823Z,1009.4
2018-04-28T19:22:25.791Z,1009.4
2018-04-28T19:27:25.837Z,1009.4
2018-04-28T19:32:25.754Z,1009.3
2018-04-28T19:37:25.769Z,1009.5
2018-04-28T19:42:25.564Z,1009.6
2018-04-28T19:47:25.799Z,1009.5
2018-04-28T19:52:26.609Z,1009.6
2018-04-28T19:57:26.381Z,1009.5
2018-04-28T20:02:40.503Z,1009.5
2018-04-28T20:07:40.399Z,1009.6
2018-04-28T20:12:40.428Z,1009.6
2018-04-28T20:17:40.228Z,1009.5
2018-04-28T20:22:40.276Z,1009.5
2018-04-28T20:27:40.458Z,1009.4
2018-04-28T20:32:40.486Z,1009.7
2018-04-28T20:37:41.982Z,1009.6
2018-04-28T20:42:41.435Z,1009.7
2018-04-28T20:47:54.500Z,1009.7
2018-04-28T20:52:54.419Z,1009.7
2018-04-28T20:57:54.217Z,1009.8
2018-04-28T21:02:54.397Z,1009.8
2018-04-28T21:07:54.267Z,1010
2018-04-28T21:12:54.237Z,1010
2018-04-28T21:17:54.229Z,1010.1
2018-04-28T21:22:55.201Z,1010.1
2018-04-28T21:27:54.959Z,1010.1
2018-04-28T21:33:07.993Z,1010
2018-04-28T21:38:09.208Z,1010.1
2018-04-28T21:43:07.866Z,1010.1
2018-04-28T21:48:07.682Z,1010
2018-04-28T21:53:08.845Z,1010.1
2018-04-28T21:58:07.790Z,1010.2
2018-04-28T22:03:07.694Z,1010.1
2018-04-28T22:08:07.738Z,1010.1
2018-04-28T22:13:07.721Z,1010.2
2018-04-28T22:18:14.990Z,1010.1
2018-04-28T22:23:13.427Z,1010.2
2018-04-28T22:28:13.435Z,1010.3
2018-04-28T22:33:13.426Z,1010.3
2018-04-28T22:38:13.439Z,1010.3
2018-04-28T22:43:13.472Z,1010.3
2018-04-28T22:48:13.432Z,1010.3
2018-04-28T22:53:14.495Z,1010.2
2018-04-28T22:58:14.243Z,1010.3
2018-04-28T23:03:26.462Z,1010.3
2018-04-28T23:08:28.982Z,1010.4
2018-04-28T23:13:26.185Z,1010.3
2018-04-28T23:18:26.204Z,1010.3
2018-04-28T23:23:26.178Z,1010.3
2018-04-28T23:28:26.199Z,1010.3
2018-04-28T23:33:26.205Z,1010.3
2018-04-28T23:38:27.127Z,1010.2
2018-04-28T23:43:26.832Z,1010.2
2018-04-28T23:48:40.583Z,1010.2
2018-04-28T23:53:40.533Z,1010.3
2018-04-28T23:58:40.492Z,1010.2
